sensor_id;sensor_type;location;lat;lon;timestamp;pressure;altitude;pressure_sealevel;temperature;humidity
77975;BME280;67164;51.202;0.278;2023-04-03T00:00:02;102745.22;;;22.47;36.48
77975;BME280;67164;51.202;0.278;2023-04-03T00:02:27;102746.40;;;22.31;36.30
77975;BME280;67164;51.202;0.278;2023-04-03T00:04:53;102746.42;;;22.47;36.41
77975;BME280;67164;51.202;0.278;2023-04-03T00:07:19;102746.95;;;22.49;36.41
77975;BME280;67164;51.202;0.278;2023-04-03T00:09:45;102746.17;;;22.20;36.35
77975;BME280;67164;51.202;0.278;2023-04-03T00:12:11;102746.49;;;22.10;36.43
77975;BME280;67164;51.202;0.278;2023-04-03T00:14:37;102746.17;;;22.42;36.42
77975;BME280;67164;51.202;0.278;2023-04-03T00:17:02;102746.36;;;22.15;36.45
77975;BME280;67164;51.202;0.278;2023-04-03T00:19:28;102742.91;;;22.21;36.65
77975;BME280;67164;51.202;0.278;2023-04-03T00:21:54;102739.51;;;22.35;36.82
77975;BME280;67164;51.202;0.278;2023-04-03T00:24:20;102738.39;;;22.28;37.07
77975;BME280;67164;51.202;0.278;2023-04-03T00:26:46;102735.36;;;22.25;37.21
77975;BME280;67164;51.202;0.278;2023-04-03T00:29:12;102735.22;;;22.17;37.22
77975;BME280;67164;51.202;0.278;2023-04-03T00:31:38;102733.33;;;22.11;37.40
77975;BME280;67164;51.202;0.278;2023-04-03T00:34:03;102731.97;;;22.07;37.84
77975;BME280;67164;51.202;0.278;2023-04-03T00:36:29;102730.05;;;21.81;37.80
77975;BME280;67164;51.202;0.278;2023-04-03T00:38:55;102729.27;;;21.97;37.82
77975;BME280;67164;51.202;0.278;2023-04-03T00:41:20;102729.96;;;21.80;38.07
77975;BME280;67164;51.202;0.278;2023-04-03T00:43:47;102733.98;;;21.66;38.77
77975;BME280;67164;51.202;0.278;2023-04-03T00:46:12;102733.95;;;21.63;39.13
77975;BME280;67164;51.202;0.278;2023-04-03T00:48:40;102737.06;;;21.55;39.52
77975;BME280;67164;51.202;0.278;2023-04-03T00:51:07;102733.59;;;21.47;39.72
77975;BME280;67164;51.202;0.278;2023-04-03T00:53:33;102733.84;;;21.37;39.84
77975;BME280;67164;51.202;0.278;2023-04-03T00:55:56;102733.06;;;21.36;39.64
77975;BME280;67164;51.202;0.278;2023-04-03T00:58:25;102733.04;;;21.33;39.26
77975;BME280;67164;51.202;0.278;2023-04-03T01:00:52;102732.34;;;21.24;39.36
77975;BME280;67164;51.202;0.278;2023-04-03T01:03:13;102731.95;;;21.16;39.55
77975;BME280;67164;51.202;0.278;2023-04-03T01:05:39;102732.90;;;21.41;39.16
77975;BME280;67164;51.202;0.278;2023-04-03T01:08:05;102735.93;;;21.05;39.08
77975;BME280;67164;51.202;0.278;2023-04-03T01:10:30;102734.13;;;21.25;39.24
77975;BME280;67164;51.202;0.278;2023-04-03T01:12:56;102732.39;;;21.30;39.46
77975;BME280;67164;51.202;0.278;2023-04-03T01:15:24;102732.28;;;20.94;39.31
77975;BME280;67164;51.202;0.278;2023-04-03T01:17:49;102732.83;;;20.65;39.38
77975;BME280;67164;51.202;0.278;2023-04-03T01:20:36;102734.47;;;20.99;39.95
77975;BME280;67164;51.202;0.278;2023-04-03T01:22:42;102734.18;;;20.92;39.21
77975;BME280;67164;51.202;0.278;2023-04-03T01:25:05;102731.27;;;20.90;39.38
77975;BME280;67164;51.202;0.278;2023-04-03T01:27:31;102728.36;;;21.16;38.61
77975;BME280;67164;51.202;0.278;2023-04-03T01:29:57;102725.78;;;20.78;38.84
77975;BME280;67164;51.202;0.278;2023-04-03T01:32:22;102720.44;;;20.77;38.96
77975;BME280;67164;51.202;0.278;2023-04-03T01:34:48;102718.61;;;21.03;38.93
77975;BME280;67164;51.202;0.278;2023-04-03T01:37:14;102719.82;;;21.23;38.66
77975;BME280;67164;51.202;0.278;2023-04-03T01:39:40;102723.08;;;21.21;38.72
77975;BME280;67164;51.202;0.278;2023-04-03T01:42:06;102724.78;;;20.95;38.89
77975;BME280;67164;51.202;0.278;2023-04-03T01:44:31;102717.71;;;21.21;38.49
77975;BME280;67164;51.202;0.278;2023-04-03T01:46:57;102714.42;;;21.04;38.95
77975;BME280;67164;51.202;0.278;2023-04-03T01:49:23;102712.68;;;21.09;38.80
77975;BME280;67164;51.202;0.278;2023-04-03T01:51:49;102708.83;;;20.81;39.06
77975;BME280;67164;51.202;0.278;2023-04-03T01:54:14;102708.68;;;21.05;38.96
77975;BME280;67164;51.202;0.278;2023-04-03T01:56:40;102708.45;;;20.83;38.82
77975;BME280;67164;51.202;0.278;2023-04-03T01:59:06;102706.91;;;20.77;38.96
77975;BME280;67164;51.202;0.278;2023-04-03T02:01:32;102702.76;;;20.77;38.70
77975;BME280;67164;51.202;0.278;2023-04-03T02:03:58;102700.05;;;20.73;38.47
77975;BME280;67164;51.202;0.278;2023-04-03T02:06:24;102699.74;;;20.67;38.92
77975;BME280;67164;51.202;0.278;2023-04-03T02:08:49;102700.34;;;20.44;38.84
77975;BME280;67164;51.202;0.278;2023-04-03T02:11:15;102702.35;;;20.92;38.98
77975;BME280;67164;51.202;0.278;2023-04-03T02:13:41;102704.52;;;20.74;39.05
77975;BME280;67164;51.202;0.278;2023-04-03T02:16:10;102706.04;;;20.91;38.76
77975;BME280;67164;51.202;0.278;2023-04-03T02:18:33;102700.44;;;20.43;38.67
77975;BME280;67164;51.202;0.278;2023-04-03T02:20:58;102699.80;;;20.67;38.50
77975;BME280;67164;51.202;0.278;2023-04-03T02:23:24;102697.42;;;20.84;38.48
77975;BME280;67164;51.202;0.278;2023-04-03T02:25:50;102699.64;;;20.80;38.64
77975;BME280;67164;51.202;0.278;2023-04-03T02:28:16;102701.70;;;20.76;38.74
77975;BME280;67164;51.202;0.278;2023-04-03T02:30:42;102707.09;;;20.48;38.80
77975;BME280;67164;51.202;0.278;2023-04-03T02:33:07;102702.61;;;20.64;38.87
77975;BME280;67164;51.202;0.278;2023-04-03T02:35:33;102706.61;;;20.62;38.61
77975;BME280;67164;51.202;0.278;2023-04-03T02:37:59;102706.94;;;20.57;38.84
77975;BME280;67164;51.202;0.278;2023-04-03T02:40:25;102707.68;;;20.64;38.69
77975;BME280;67164;51.202;0.278;2023-04-03T02:42:51;102703.54;;;20.57;39.03
77975;BME280;67164;51.202;0.278;2023-04-03T02:45:17;102706.06;;;20.50;38.91
77975;BME280;67164;51.202;0.278;2023-04-03T02:47:43;102704.24;;;20.52;38.85
77975;BME280;67164;51.202;0.278;2023-04-03T02:50:09;102702.39;;;20.54;38.87
77975;BME280;67164;51.202;0.278;2023-04-03T02:52:34;102700.61;;;20.48;38.81
77975;BME280;67164;51.202;0.278;2023-04-03T02:55:00;102698.35;;;20.45;39.12
77975;BME280;67164;51.202;0.278;2023-04-03T02:57:26;102695.46;;;20.54;38.65
77975;BME280;67164;51.202;0.278;2023-04-03T02:59:52;102694.61;;;20.46;38.70
77975;BME280;67164;51.202;0.278;2023-04-03T03:02:17;102695.64;;;20.48;39.12
77975;BME280;67164;51.202;0.278;2023-04-03T03:04:43;102695.43;;;20.37;38.69
77975;BME280;67164;51.202;0.278;2023-04-03T03:07:10;102692.00;;;20.41;38.73
77975;BME280;67164;51.202;0.278;2023-04-03T03:09:35;102689.36;;;20.14;38.88
77975;BME280;67164;51.202;0.278;2023-04-03T03:12:01;102688.79;;;20.37;39.13
77975;BME280;67164;51.202;0.278;2023-04-03T03:14:26;102686.84;;;20.36;38.85
77975;BME280;67164;51.202;0.278;2023-04-03T03:16:52;102690.35;;;20.23;38.81
77975;BME280;67164;51.202;0.278;2023-04-03T03:19:18;102685.25;;;20.30;38.85
77975;BME280;67164;51.202;0.278;2023-04-03T03:21:44;102685.99;;;20.24;38.86
77975;BME280;67164;51.202;0.278;2023-04-03T03:24:10;102686.75;;;20.18;38.81
77975;BME280;67164;51.202;0.278;2023-04-03T03:26:36;102681.05;;;20.03;38.73
77975;BME280;67164;51.202;0.278;2023-04-03T03:29:03;102683.35;;;20.28;38.80
77975;BME280;67164;51.202;0.278;2023-04-03T03:31:27;102684.67;;;20.26;38.95
77975;BME280;67164;51.202;0.278;2023-04-03T03:33:53;102684.31;;;20.49;38.80
77975;BME280;67164;51.202;0.278;2023-04-03T03:36:18;102690.86;;;20.18;38.69
77975;BME280;67164;51.202;0.278;2023-04-03T03:38:44;102688.24;;;19.98;38.84
77975;BME280;67164;51.202;0.278;2023-04-03T03:41:10;102688.68;;;20.15;38.59
77975;BME280;67164;51.202;0.278;2023-04-03T03:43:36;102687.42;;;20.22;38.75
77975;BME280;67164;51.202;0.278;2023-04-03T03:46:02;102687.19;;;20.19;38.82
77975;BME280;67164;51.202;0.278;2023-04-03T03:48:28;102685.75;;;20.16;38.61
77975;BME280;67164;51.202;0.278;2023-04-03T03:50:53;102690.36;;;20.12;38.66
77975;BME280;67164;51.202;0.278;2023-04-03T03:53:19;102693.27;;;20.15;38.54
77975;BME280;67164;51.202;0.278;2023-04-03T03:55:45;102691.06;;;20.11;38.83
77975;BME280;67164;51.202;0.278;2023-04-03T03:58:11;102688.87;;;20.04;39.06
77975;BME280;67164;51.202;0.278;2023-04-03T04:00:38;102688.91;;;19.97;38.97
77975;BME280;67164;51.202;0.278;2023-04-03T04:03:04;102689.63;;;20.00;38.89
77975;BME280;67164;51.202;0.278;2023-04-03T04:05:30;102691.14;;;19.99;38.84
77975;BME280;67164;51.202;0.278;2023-04-03T04:07:54;102691.17;;;20.01;38.59
77975;BME280;67164;51.202;0.278;2023-04-03T04:10:20;102686.15;;;19.98;38.70
77975;BME280;67164;51.202;0.278;2023-04-03T04:12:46;102683.65;;;19.99;38.84
77975;BME280;67164;51.202;0.278;2023-04-03T04:15:12;102678.54;;;19.92;38.67
77975;BME280;67164;51.202;0.278;2023-04-03T04:17:38;102677.58;;;19.86;38.74
77975;BME280;67164;51.202;0.278;2023-04-03T04:20:04;102675.19;;;20.00;38.71
77975;BME280;67164;51.202;0.278;2023-04-03T04:22:29;102674.88;;;19.92;39.02
77975;BME280;67164;51.202;0.278;2023-04-03T04:24:55;102680.37;;;20.17;38.87
77975;BME280;67164;51.202;0.278;2023-04-03T04:27:20;102677.06;;;19.84;38.83
77975;BME280;67164;51.202;0.278;2023-04-03T04:29:46;102678.91;;;19.78;38.53
77975;BME280;67164;51.202;0.278;2023-04-03T04:32:12;102678.73;;;19.78;38.93
77975;BME280;67164;51.202;0.278;2023-04-03T04:34:38;102679.49;;;20.11;38.66
77975;BME280;67164;51.202;0.278;2023-04-03T04:37:04;102678.03;;;19.79;38.86
77975;BME280;67164;51.202;0.278;2023-04-03T04:39:29;102674.75;;;19.69;39.40
77975;BME280;67164;51.202;0.278;2023-04-03T04:41:55;102677.04;;;19.75;38.65
77975;BME280;67164;51.202;0.278;2023-04-03T04:44:21;102678.84;;;19.67;38.75
77975;BME280;67164;51.202;0.278;2023-04-03T04:46:47;102678.40;;;19.97;38.58
77975;BME280;67164;51.202;0.278;2023-04-03T04:49:13;102678.75;;;19.70;38.86
77975;BME280;67164;51.202;0.278;2023-04-03T04:51:38;102676.05;;;19.65;38.83
77975;BME280;67164;51.202;0.278;2023-04-03T04:54:04;102677.87;;;19.73;38.60
77975;BME280;67164;51.202;0.278;2023-04-03T04:56:31;102676.87;;;19.90;38.68
77975;BME280;67164;51.202;0.278;2023-04-03T04:58:56;102678.19;;;19.59;39.00
77975;BME280;67164;51.202;0.278;2023-04-03T05:01:22;102683.61;;;19.51;39.12
77975;BME280;67164;51.202;0.278;2023-04-03T05:03:47;102682.24;;;19.99;38.34
77975;BME280;67164;51.202;0.278;2023-04-03T05:06:13;102684.29;;;19.67;38.62
77975;BME280;67164;51.202;0.278;2023-04-03T05:08:40;102680.08;;;19.57;39.52
77975;BME280;67164;51.202;0.278;2023-04-03T05:11:05;102683.26;;;19.94;38.80
77975;BME280;67164;51.202;0.278;2023-04-03T05:13:31;102682.86;;;19.98;38.56
77975;BME280;67164;51.202;0.278;2023-04-03T05:15:57;102679.04;;;20.23;38.30
77975;BME280;67164;51.202;0.278;2023-04-03T05:18:22;102683.51;;;20.39;38.03
77975;BME280;67164;51.202;0.278;2023-04-03T05:20:49;102680.38;;;20.54;38.37
77975;BME280;67164;51.202;0.278;2023-04-03T05:23:14;102681.28;;;20.73;38.04
77975;BME280;67164;51.202;0.278;2023-04-03T05:25:40;102684.31;;;19.48;39.47
77975;BME280;67164;51.202;0.278;2023-04-03T05:28:06;102684.07;;;19.32;39.75
77975;BME280;67164;51.202;0.278;2023-04-03T05:30:31;102684.73;;;19.56;39.76
77975;BME280;67164;51.202;0.278;2023-04-03T05:32:58;102679.43;;;19.62;39.66
77975;BME280;67164;51.202;0.278;2023-04-03T05:35:23;102678.39;;;19.41;39.75
77975;BME280;67164;51.202;0.278;2023-04-03T05:37:49;102674.79;;;19.66;39.74
77975;BME280;67164;51.202;0.278;2023-04-03T05:40:15;102679.15;;;19.34;39.84
77975;BME280;67164;51.202;0.278;2023-04-03T05:42:40;102679.83;;;19.70;39.75
77975;BME280;67164;51.202;0.278;2023-04-03T05:45:07;102688.04;;;19.34;39.94
77975;BME280;67164;51.202;0.278;2023-04-03T05:47:32;102684.48;;;19.69;39.87
77975;BME280;67164;51.202;0.278;2023-04-03T05:49:58;102688.41;;;19.44;39.87
77975;BME280;67164;51.202;0.278;2023-04-03T05:52:27;102691.16;;;19.42;39.94
77975;BME280;67164;51.202;0.278;2023-04-03T05:54:50;102694.18;;;19.74;39.70
77975;BME280;67164;51.202;0.278;2023-04-03T05:57:15;102695.04;;;19.55;39.65
77975;BME280;67164;51.202;0.278;2023-04-03T05:59:42;102698.18;;;19.48;39.61
77975;BME280;67164;51.202;0.278;2023-04-03T06:02:08;102697.99;;;19.47;39.66
77975;BME280;67164;51.202;0.278;2023-04-03T06:04:33;102695.95;;;19.74;39.61
77975;BME280;67164;51.202;0.278;2023-04-03T06:06:59;102700.90;;;19.48;39.56
77975;BME280;67164;51.202;0.278;2023-04-03T06:09:26;102700.60;;;19.54;39.45
77975;BME280;67164;51.202;0.278;2023-04-03T06:11:50;102702.66;;;19.50;39.41
77975;BME280;67164;51.202;0.278;2023-04-03T06:14:16;102704.08;;;19.56;39.29
77975;BME280;67164;51.202;0.278;2023-04-03T06:16:42;102701.30;;;19.87;39.29
77975;BME280;67164;51.202;0.278;2023-04-03T06:19:13;102701.19;;;19.66;39.21
77975;BME280;67164;51.202;0.278;2023-04-03T06:21:34;102704.48;;;19.67;39.27
77975;BME280;67164;51.202;0.278;2023-04-03T06:23:59;102704.92;;;19.58;39.24
77975;BME280;67164;51.202;0.278;2023-04-03T06:26:25;102703.19;;;19.61;39.21
77975;BME280;67164;51.202;0.278;2023-04-03T06:28:51;102701.96;;;19.63;39.14
77975;BME280;67164;51.202;0.278;2023-04-03T06:31:17;102701.54;;;19.48;39.45
77975;BME280;67164;51.202;0.278;2023-04-03T06:33:42;102702.80;;;19.64;39.21
77975;BME280;67164;51.202;0.278;2023-04-03T06:36:11;102703.51;;;19.62;39.40
77975;BME280;67164;51.202;0.278;2023-04-03T06:38:34;102703.69;;;19.68;39.23
77975;BME280;67164;51.202;0.278;2023-04-03T06:41:00;102703.79;;;20.32;38.62
77975;BME280;67164;51.202;0.278;2023-04-03T06:43:26;102707.70;;;20.20;38.97
77975;BME280;67164;51.202;0.278;2023-04-03T06:45:53;102706.97;;;19.87;39.21
77975;BME280;67164;51.202;0.278;2023-04-03T06:48:18;102713.86;;;19.80;39.01
77975;BME280;67164;51.202;0.278;2023-04-03T06:50:43;102714.22;;;19.68;38.89
77975;BME280;67164;51.202;0.278;2023-04-03T06:53:09;102717.35;;;19.94;38.68
77975;BME280;67164;51.202;0.278;2023-04-03T06:55:35;102719.09;;;19.74;38.83
77975;BME280;67164;51.202;0.278;2023-04-03T06:58:01;102720.75;;;19.95;38.70
77975;BME280;67164;51.202;0.278;2023-04-03T07:00:26;102719.17;;;19.76;39.00
77975;BME280;67164;51.202;0.278;2023-04-03T07:02:52;102722.82;;;19.63;39.50
77975;BME280;67164;51.202;0.278;2023-04-03T07:05:18;102723.15;;;19.97;39.58
77975;BME280;67164;51.202;0.278;2023-04-03T07:07:44;102721.13;;;19.75;39.55
77975;BME280;67164;51.202;0.278;2023-04-03T07:10:10;102723.18;;;20.18;38.84
77975;BME280;67164;51.202;0.278;2023-04-03T07:12:35;102727.05;;;19.71;39.35
77975;BME280;67164;51.202;0.278;2023-04-03T07:15:01;102722.27;;;19.82;39.23
77975;BME280;67164;51.202;0.278;2023-04-03T07:17:27;102724.71;;;19.47;40.04
77975;BME280;67164;51.202;0.278;2023-04-03T07:19:53;102724.71;;;19.90;39.59
77975;BME280;67164;51.202;0.278;2023-04-03T07:22:19;102723.86;;;19.88;39.73
77975;BME280;67164;51.202;0.278;2023-04-03T07:24:45;102725.66;;;19.43;40.14
77975;BME280;67164;51.202;0.278;2023-04-03T07:27:10;102728.68;;;20.35;39.59
77975;BME280;67164;51.202;0.278;2023-04-03T07:29:36;102726.15;;;19.94;39.61
77975;BME280;67164;51.202;0.278;2023-04-03T07:32:02;102729.85;;;20.55;39.39
77975;BME280;67164;51.202;0.278;2023-04-03T07:34:28;102727.26;;;20.15;39.59
77975;BME280;67164;51.202;0.278;2023-04-03T07:36:54;102728.41;;;19.89;39.85
77975;BME280;67164;51.202;0.278;2023-04-03T07:39:20;102725.35;;;19.87;39.83
77975;BME280;67164;51.202;0.278;2023-04-03T07:41:45;102726.22;;;19.25;40.25
77975;BME280;67164;51.202;0.278;2023-04-03T07:44:11;102724.60;;;19.11;40.51
77975;BME280;67164;51.202;0.278;2023-04-03T07:46:37;102726.09;;;19.53;40.47
77975;BME280;67164;51.202;0.278;2023-04-03T07:49:03;102730.04;;;19.69;40.47
77975;BME280;67164;51.202;0.278;2023-04-03T07:51:29;102725.51;;;19.77;40.33
77975;BME280;67164;51.202;0.278;2023-04-03T07:53:54;102726.72;;;19.82;40.27
77975;BME280;67164;51.202;0.278;2023-04-03T07:56:20;102727.60;;;19.84;40.13
77975;BME280;67164;51.202;0.278;2023-04-03T07:58:46;102726.78;;;19.35;41.21
77975;BME280;67164;51.202;0.278;2023-04-03T08:01:12;102728.05;;;19.29;41.68
77975;BME280;67164;51.202;0.278;2023-04-03T08:03:38;102724.62;;;19.64;41.98
77975;BME280;67164;51.202;0.278;2023-04-03T08:06:06;102724.56;;;19.36;42.38
77975;BME280;67164;51.202;0.278;2023-04-03T08:08:29;102727.34;;;19.46;43.09
77975;BME280;67164;51.202;0.278;2023-04-03T08:10:57;102729.85;;;19.42;44.16
77975;BME280;67164;51.202;0.278;2023-04-03T08:13:22;102726.80;;;19.65;45.27
77975;BME280;67164;51.202;0.278;2023-04-03T08:15:47;102724.41;;;19.96;44.87
77975;BME280;67164;51.202;0.278;2023-04-03T08:18:13;102719.71;;;19.82;44.22
77975;BME280;67164;51.202;0.278;2023-04-03T08:20:39;102724.39;;;19.65;44.20
77975;BME280;67164;51.202;0.278;2023-04-03T08:23:04;102727.20;;;19.62;44.02
77975;BME280;67164;51.202;0.278;2023-04-03T08:25:30;102732.58;;;19.65;44.22
77975;BME280;67164;51.202;0.278;2023-04-03T08:27:56;102733.19;;;19.74;44.91
77975;BME280;67164;51.202;0.278;2023-04-03T08:30:21;102735.12;;;20.20;44.41
77975;BME280;67164;51.202;0.278;2023-04-03T08:32:47;102737.67;;;19.68;45.38
77975;BME280;67164;51.202;0.278;2023-04-03T08:35:13;102740.11;;;19.73;44.73
77975;BME280;67164;51.202;0.278;2023-04-03T08:37:40;102741.51;;;19.89;44.34
77975;BME280;67164;51.202;0.278;2023-04-03T08:40:06;102736.54;;;19.78;44.47
77975;BME280;67164;51.202;0.278;2023-04-03T08:42:40;102736.74;;;20.01;44.23
77975;BME280;67164;51.202;0.278;2023-04-03T08:45:00;102734.95;;;19.91;44.56
77975;BME280;67164;51.202;0.278;2023-04-03T08:47:25;102734.03;;;20.04;44.71
77975;BME280;67164;51.202;0.278;2023-04-03T08:49:50;102732.97;;;20.18;44.52
77975;BME280;67164;51.202;0.278;2023-04-03T08:52:16;102736.79;;;19.52;45.01
77975;BME280;67164;51.202;0.278;2023-04-03T08:54:48;102743.48;;;19.52;45.57
77975;BME280;67164;51.202;0.278;2023-04-03T08:57:05;102740.81;;;19.72;45.61
77975;BME280;67164;51.202;0.278;2023-04-03T08:59:34;102745.30;;;19.55;45.78
77975;BME280;67164;51.202;0.278;2023-04-03T09:01:58;102736.91;;;19.65;45.66
77975;BME280;67164;51.202;0.278;2023-04-03T09:04:21;102741.40;;;19.57;45.65
77975;BME280;67164;51.202;0.278;2023-04-03T09:06:51;102737.74;;;19.78;45.31
77975;BME280;67164;51.202;0.278;2023-04-03T09:09:15;102738.66;;;19.66;45.24
77975;BME280;67164;51.202;0.278;2023-04-03T09:11:46;102736.59;;;19.72;45.28
77975;BME280;67164;51.202;0.278;2023-04-03T09:14:11;102735.20;;;19.73;45.09
77975;BME280;67164;51.202;0.278;2023-04-03T09:16:39;102735.90;;;19.65;45.13
77975;BME280;67164;51.202;0.278;2023-04-03T09:19:03;102733.58;;;19.71;44.53
77975;BME280;67164;51.202;0.278;2023-04-03T09:21:26;102732.71;;;19.92;44.58
77975;BME280;67164;51.202;0.278;2023-04-03T09:23:50;102733.31;;;20.31;44.41
77975;BME280;67164;51.202;0.278;2023-04-03T09:26:16;102735.96;;;20.06;44.88
77975;BME280;67164;51.202;0.278;2023-04-03T09:28:40;102735.29;;;20.01;44.60
77975;BME280;67164;51.202;0.278;2023-04-03T09:31:14;102736.38;;;20.17;44.37
77975;BME280;67164;51.202;0.278;2023-04-03T09:33:34;102732.88;;;19.89;44.97
77975;BME280;67164;51.202;0.278;2023-04-03T09:35:57;102731.01;;;20.48;44.56
77975;BME280;67164;51.202;0.278;2023-04-03T09:38:23;102730.51;;;20.01;44.72
77975;BME280;67164;51.202;0.278;2023-04-03T09:40:50;102729.30;;;20.51;44.22
77975;BME280;67164;51.202;0.278;2023-04-03T09:43:23;102723.73;;;20.27;43.81
77975;BME280;67164;51.202;0.278;2023-04-03T09:45:40;102722.36;;;20.48;43.09
77975;BME280;67164;51.202;0.278;2023-04-03T09:48:15;102723.05;;;20.49;42.96
77975;BME280;67164;51.202;0.278;2023-04-03T09:50:32;102713.40;;;20.34;42.90
77975;BME280;67164;51.202;0.278;2023-04-03T09:52:58;102715.17;;;20.31;43.19
77975;BME280;67164;51.202;0.278;2023-04-03T09:55:25;102718.70;;;19.96;43.52
77975;BME280;67164;51.202;0.278;2023-04-03T09:57:50;102717.88;;;19.78;43.49
77975;BME280;67164;51.202;0.278;2023-04-03T10:00:23;102715.47;;;20.34;43.24
77975;BME280;67164;51.202;0.278;2023-04-03T10:02:42;102716.75;;;20.44;43.09
77975;BME280;67164;51.202;0.278;2023-04-03T10:07:36;102721.91;;;20.53;42.36
77975;BME280;67164;51.202;0.278;2023-04-03T10:10:00;102718.90;;;20.38;41.74
77975;BME280;67164;51.202;0.278;2023-04-03T10:12:24;102718.90;;;20.24;41.11
77975;BME280;67164;51.202;0.278;2023-04-03T10:14:56;102717.00;;;20.16;40.77
77975;BME280;67164;51.202;0.278;2023-04-03T10:17:21;102722.11;;;20.91;40.71
77975;BME280;67164;51.202;0.278;2023-04-03T10:19:44;102726.49;;;20.89;41.13
77975;BME280;67164;51.202;0.278;2023-04-03T10:22:16;102730.60;;;20.66;41.24
77975;BME280;67164;51.202;0.278;2023-04-03T10:24:38;102727.92;;;21.14;40.71
77975;BME280;67164;51.202;0.278;2023-04-03T10:27:04;102728.05;;;20.63;41.84
77975;BME280;67164;51.202;0.278;2023-04-03T10:29:36;102726.85;;;20.28;42.42
77975;BME280;67164;51.202;0.278;2023-04-03T10:31:57;102723.78;;;20.25;42.24
77975;BME280;67164;51.202;0.278;2023-04-03T10:34:21;102725.27;;;20.16;42.77
77975;BME280;67164;51.202;0.278;2023-04-03T10:36:45;102724.85;;;19.89;42.98
77975;BME280;67164;51.202;0.278;2023-04-03T10:39:17;102726.59;;;20.25;42.85
77975;BME280;67164;51.202;0.278;2023-04-03T10:41:44;102726.52;;;20.61;42.40
77975;BME280;67164;51.202;0.278;2023-04-03T10:44:08;102724.20;;;20.29;42.48
77975;BME280;67164;51.202;0.278;2023-04-03T10:46:28;102721.00;;;20.58;42.15
77975;BME280;67164;51.202;0.278;2023-04-03T10:49:01;102722.99;;;20.37;42.51
77975;BME280;67164;51.202;0.278;2023-04-03T10:51:24;102723.10;;;20.45;42.58
77975;BME280;67164;51.202;0.278;2023-04-03T10:53:47;102720.31;;;20.46;42.69
77975;BME280;67164;51.202;0.278;2023-04-03T10:56:14;102715.25;;;20.43;42.85
77975;BME280;67164;51.202;0.278;2023-04-03T10:58:38;102714.50;;;20.63;42.94
77975;BME280;67164;51.202;0.278;2023-04-03T11:01:02;102715.34;;;19.98;43.94
77975;BME280;67164;51.202;0.278;2023-04-03T11:03:30;102714.47;;;20.49;43.57
77975;BME280;67164;51.202;0.278;2023-04-03T11:05:52;102714.91;;;20.05;43.60
77975;BME280;67164;51.202;0.278;2023-04-03T11:08:24;102712.30;;;20.20;43.48
77975;BME280;67164;51.202;0.278;2023-04-03T11:10:44;102711.21;;;20.49;42.81
77975;BME280;67164;51.202;0.278;2023-04-03T11:13:11;102702.42;;;20.61;42.36
77975;BME280;67164;51.202;0.278;2023-04-03T11:15:33;102703.30;;;20.54;42.13
77975;BME280;67164;51.202;0.278;2023-04-03T11:18:02;102699.24;;;20.81;41.55
77975;BME280;67164;51.202;0.278;2023-04-03T11:20:28;102700.82;;;20.54;41.96
77975;BME280;67164;51.202;0.278;2023-04-03T11:22:53;102698.17;;;20.54;41.90
77975;BME280;67164;51.202;0.278;2023-04-03T11:25:20;102697.91;;;20.53;42.20
77975;BME280;67164;51.202;0.278;2023-04-03T11:27:44;102687.95;;;20.43;41.96
77975;BME280;67164;51.202;0.278;2023-04-03T11:30:14;102687.51;;;20.47;42.22
77975;BME280;67164;51.202;0.278;2023-04-03T11:32:51;102682.09;;;20.15;42.32
77975;BME280;67164;51.202;0.278;2023-04-03T11:35:01;102685.36;;;20.34;42.27
77975;BME280;67164;51.202;0.278;2023-04-03T11:37:29;102677.79;;;20.63;41.59
77975;BME280;67164;51.202;0.278;2023-04-03T11:39:54;102677.70;;;20.59;41.02
77975;BME280;67164;51.202;0.278;2023-04-03T11:42:22;102676.23;;;20.16;41.69
77975;BME280;67164;51.202;0.278;2023-04-03T11:44:42;102677.17;;;20.55;41.55
77975;BME280;67164;51.202;0.278;2023-04-03T11:47:09;102678.48;;;20.30;41.97
77975;BME280;67164;51.202;0.278;2023-04-03T11:49:52;102675.60;;;20.23;42.11
77975;BME280;67164;51.202;0.278;2023-04-03T11:51:59;102674.28;;;20.51;41.99
77975;BME280;67164;51.202;0.278;2023-04-03T11:54:42;102675.39;;;20.45;41.85
77975;BME280;67164;51.202;0.278;2023-04-03T11:56:51;102671.63;;;19.92;42.30
77975;BME280;67164;51.202;0.278;2023-04-03T11:59:22;102666.18;;;20.48;41.79
77975;BME280;67164;51.202;0.278;2023-04-03T12:01:44;102664.35;;;20.59;41.65
77975;BME280;67164;51.202;0.278;2023-04-03T12:04:11;102665.56;;;20.35;41.63
77975;BME280;67164;51.202;0.278;2023-04-03T12:09:00;102654.86;;;20.69;41.08
77975;BME280;67164;51.202;0.278;2023-04-03T12:11:29;102650.42;;;20.30;41.65
77975;BME280;67164;51.202;0.278;2023-04-03T12:14:02;102647.88;;;20.36;41.63
77975;BME280;67164;51.202;0.278;2023-04-03T12:16:21;102647.93;;;20.15;41.94
77975;BME280;67164;51.202;0.278;2023-04-03T12:18:46;102651.01;;;20.74;41.44
77975;BME280;67164;51.202;0.278;2023-04-03T12:21:09;102643.90;;;20.42;41.57
77975;BME280;67164;51.202;0.278;2023-04-03T12:23:35;102645.23;;;20.56;41.66
77975;BME280;67164;51.202;0.278;2023-04-03T12:26:06;102642.76;;;20.05;42.07
77975;BME280;67164;51.202;0.278;2023-04-03T12:28:27;102642.11;;;20.51;41.80
77975;BME280;67164;51.202;0.278;2023-04-03T12:30:52;102635.64;;;20.12;42.06
77975;BME280;67164;51.202;0.278;2023-04-03T12:33:23;102638.58;;;20.47;41.83
77975;BME280;67164;51.202;0.278;2023-04-03T12:35:54;102637.29;;;20.43;41.85
77975;BME280;67164;51.202;0.278;2023-04-03T12:38:24;102629.41;;;20.53;41.43
77975;BME280;67164;51.202;0.278;2023-04-03T12:40:39;102626.61;;;20.29;41.72
77975;BME280;67164;51.202;0.278;2023-04-03T12:43:20;102623.10;;;20.33;41.68
77975;BME280;67164;51.202;0.278;2023-04-03T12:45:27;102616.21;;;20.29;41.62